createdAt,value
2023-05-12T00:00:22.394Z,14.34
2023-05-12T00:01:22.377Z,14.32
2023-05-12T00:02:22.501Z,14.32
2023-05-12T00:03:22.433Z,14.34
2023-05-12T00:04:22.365Z,14.32
2023-05-12T00:05:22.348Z,14.29
2023-05-12T00:06:22.339Z,14.25
2023-05-12T00:07:22.328Z,14.24
2023-05-12T00:08:22.309Z,14.21
2023-05-12T00:09:22.307Z,14.17
2023-05-12T00:10:22.334Z,14.14
2023-05-12T00:11:22.275Z,14.14
2023-05-12T00:12:22.288Z,14.13
2023-05-12T00:13:22.255Z,14.07
2023-05-12T00:14:22.235Z,13.99
2023-05-12T00:15:22.245Z,13.99
2023-05-12T00:16:22.265Z,13.99
2023-05-12T00:17:22.260Z,13.96
2023-05-12T00:18:22.201Z,13.98
2023-05-12T00:19:22.190Z,13.96
2023-05-12T00:20:22.448Z,13.96
2023-05-12T00:21:22.153Z,13.96
2023-05-12T00:22:22.136Z,13.92
2023-05-12T00:23:22.156Z,13.91
2023-05-12T00:24:22.114Z,13.87
2023-05-12T00:25:22.102Z,13.87
2023-05-12T00:26:22.103Z,13.87
2023-05-12T00:27:22.094Z,13.88
2023-05-12T00:28:22.097Z,13.87
2023-05-12T00:29:22.058Z,13.84
2023-05-12T00:30:22.212Z,13.84
2023-05-12T00:31:22.089Z,13.81
2023-05-12T00:32:22.062Z,13.80
2023-05-12T00:33:22.060Z,13.79
2023-05-12T00:34:22.020Z,13.77
2023-05-12T00:35:22.005Z,13.76
2023-05-12T00:36:21.988Z,13.77
2023-05-12T00:37:21.983Z,13.79
2023-05-12T00:38:21.989Z,13.80
2023-05-12T00:39:21.969Z,13.80
2023-05-12T00:40:22.031Z,13.80
2023-05-12T00:41:21.937Z,13.80
2023-05-12T00:42:21.926Z,13.79
2023-05-12T00:43:21.935Z,13.80
2023-05-12T00:44:21.898Z,13.80
2023-05-12T00:45:21.947Z,13.80
2023-05-12T00:46:21.947Z,13.79
2023-05-12T00:47:21.866Z,13.77
2023-05-12T00:48:21.860Z,13.77
2023-05-12T00:49:21.885Z,13.79
2023-05-12T00:50:22.004Z,13.80
2023-05-12T00:51:21.831Z,13.79
2023-05-12T00:52:21.810Z,13.77
2023-05-12T00:53:21.810Z,13.79
2023-05-12T00:54:21.812Z,13.79
2023-05-12T00:55:21.795Z,13.77
2023-05-12T00:56:21.768Z,13.80
2023-05-12T00:57:21.772Z,13.79
2023-05-12T00:58:21.750Z,13.77
2023-05-12T00:59:21.739Z,13.77
2023-05-12T01:00:21.950Z,13.77
2023-05-12T01:01:21.747Z,13.76
2023-05-12T01:02:21.797Z,13.74
2023-05-12T01:03:21.860Z,13.74
2023-05-12T01:04:21.722Z,13.71
2023-05-12T01:05:21.676Z,13.70
2023-05-12T01:06:21.664Z,13.73
2023-05-12T01:07:21.659Z,13.71
2023-05-12T01:08:21.637Z,13.73
2023-05-12T01:09:21.646Z,13.74
2023-05-12T01:10:21.864Z,13.76
2023-05-12T01:11:21.614Z,13.76
2023-05-12T01:12:21.599Z,13.76
2023-05-12T01:13:21.594Z,13.77
2023-05-12T01:14:21.579Z,13.74
2023-05-12T01:15:21.583Z,13.73
2023-05-12T01:16:21.573Z,13.73
2023-05-12T01:17:21.577Z,13.74
2023-05-12T01:18:21.646Z,13.73
2023-05-12T01:19:21.517Z,13.73
2023-05-12T01:20:21.706Z,13.73
2023-05-12T01:21:21.506Z,13.71
2023-05-12T01:22:21.520Z,13.73
2023-05-12T01:23:21.475Z,13.71
2023-05-12T01:24:21.463Z,13.71
2023-05-12T01:25:21.455Z,13.71
2023-05-12T01:26:21.449Z,13.69
2023-05-12T01:27:21.448Z,13.70
2023-05-12T01:28:21.411Z,13.70
2023-05-12T01:29:21.422Z,13.70
2023-05-12T01:30:21.640Z,13.73
2023-05-12T01:31:21.486Z,13.70
2023-05-12T01:32:21.412Z,13.69
2023-05-12T01:33:21.375Z,13.65
2023-05-12T01:34:21.373Z,13.63
2023-05-12T01:35:21.374Z,13.62
2023-05-12T01:36:21.336Z,13.61
2023-05-12T01:37:21.394Z,13.63
2023-05-12T01:38:21.310Z,13.62
2023-05-12T01:39:21.299Z,13.61
2023-05-12T01:40:21.559Z,13.61
2023-05-12T01:41:21.279Z,13.59
2023-05-12T01:42:21.302Z,13.58
2023-05-12T01:43:22.326Z,13.58
2023-05-12T01:44:21.265Z,13.56
2023-05-12T01:45:21.251Z,13.56
2023-05-12T01:46:21.282Z,13.56
2023-05-12T01:47:21.242Z,13.55
2023-05-12T01:48:21.202Z,13.55
2023-05-12T01:49:21.224Z,13.51
2023-05-12T01:50:21.428Z,13.49
2023-05-12T01:51:21.165Z,13.47
2023-05-12T01:52:21.173Z,13.47
2023-05-12T01:53:21.162Z,13.47
2023-05-12T01:54:21.154Z,13.47
2023-05-12T01:55:21.124Z,13.46
2023-05-12T01:56:21.106Z,13.44
2023-05-12T01:57:21.099Z,13.46
2023-05-12T01:58:21.094Z,13.44
2023-05-12T01:59:21.131Z,13.41
2023-05-12T02:00:21.324Z,13.44
2023-05-12T02:01:21.089Z,13.41
2023-05-12T02:02:21.036Z,13.41
2023-05-12T02:03:21.079Z,13.40
2023-05-12T02:04:21.026Z,13.38
2023-05-12T02:05:21.032Z,13.36
2023-05-12T02:06:21.002Z,13.32
2023-05-12T02:07:20.984Z,13.32
2023-05-12T02:08:20.982Z,13.30
2023-05-12T02:09:20.976Z,13.30
2023-05-12T02:10:21.212Z,13.29
2023-05-12T02:11:20.972Z,13.25
2023-05-12T02:12:20.932Z,13.24
2023-05-12T02:13:20.927Z,13.27
2023-05-12T02:14:20.912Z,13.25
2023-05-12T02:15:20.922Z,13.25
2023-05-12T02:16:20.955Z,13.24
2023-05-12T02:17:20.887Z,13.22
2023-05-12T02:18:20.890Z,13.20
2023-05-12T02:19:20.860Z,13.18
2023-05-12T02:20:21.154Z,13.20
2023-05-12T02:21:20.871Z,13.18
2023-05-12T02:22:20.836Z,13.18
2023-05-12T02:23:20.818Z,13.18
2023-05-12T02:24:20.802Z,13.15
2023-05-12T02:25:20.787Z,13.14
2023-05-12T02:26:20.800Z,13.14
2023-05-12T02:27:20.798Z,13.12
2023-05-12T02:28:20.758Z,13.09
2023-05-12T02:29:20.759Z,13.09
2023-05-12T02:30:21.054Z,13.09
2023-05-12T02:31:20.767Z,13.11
2023-05-12T02:32:20.769Z,13.11
2023-05-12T02:33:20.712Z,13.12
2023-05-12T02:34:20.714Z,13.12
2023-05-12T02:35:20.686Z,13.14
2023-05-12T02:36:20.673Z,13.14
2023-05-12T02:37:20.660Z,13.15
2023-05-12T02:38:20.699Z,13.15
2023-05-12T02:39:20.654Z,13.17
2023-05-12T02:40:20.755Z,13.17
2023-05-12T02:41:20.619Z,13.17
2023-05-12T02:42:20.607Z,13.18
2023-05-12T02:43:20.605Z,13.18
2023-05-12T02:44:20.599Z,13.20
2023-05-12T02:45:20.586Z,13.21
2023-05-12T02:46:20.577Z,13.18
2023-05-12T02:47:20.555Z,13.20
2023-05-12T02:48:20.540Z,13.20
2023-05-12T02:49:20.560Z,13.22
2023-05-12T02:50:20.724Z,13.24
2023-05-12T02:51:20.506Z,13.24
2023-05-12T02:52:20.508Z,13.24
2023-05-12T02:53:20.523Z,13.24
2023-05-12T02:54:20.474Z,13.24
2023-05-12T02:55:20.480Z,13.25
2023-05-12T02:56:20.453Z,13.27
2023-05-12T02:57:20.463Z,13.27
2023-05-12T02:58:20.476Z,13.30
2023-05-12T02:59:20.425Z,13.32
2023-05-12T03:00:20.562Z,13.33
2023-05-12T03:01:20.443Z,13.33
2023-05-12T03:02:20.410Z,13.36
2023-05-12T03:03:20.548Z,13.36
2023-05-12T03:04:20.386Z,13.36
2023-05-12T03:05:20.365Z,13.33
2023-05-12T03:06:20.350Z,13.32
2023-05-12T03:07:20.346Z,13.30
2023-05-12T03:08:20.324Z,13.30
2023-05-12T03:09:20.335Z,13.29
2023-05-12T03:10:20.473Z,13.29
2023-05-12T03:11:20.292Z,13.27
2023-05-12T03:12:20.284Z,13.29
2023-05-12T03:13:20.297Z,13.25
2023-05-12T03:14:20.288Z,13.21
2023-05-12T03:15:20.251Z,13.20
2023-05-12T03:16:20.406Z,13.18
2023-05-12T03:17:20.263Z,13.17
2023-05-12T03:18:20.303Z,13.17
2023-05-12T03:19:20.201Z,13.15
2023-05-12T03:20:20.471Z,13.14
2023-05-12T03:21:20.223Z,13.12
2023-05-12T03:22:20.178Z,13.07
2023-05-12T03:23:20.189Z,13.07
2023-05-12T03:24:20.153Z,13.06
2023-05-12T03:25:20.141Z,13.04
2023-05-12T03:26:20.142Z,13.02
2023-05-12T03:27:20.152Z,13.00
2023-05-12T03:28:20.106Z,13.02
2023-05-12T03:29:20.107Z,13.02
2023-05-12T03:30:20.332Z,12.99
2023-05-12T03:31:20.104Z,13.02
2023-05-12T03:32:20.100Z,13.03
2023-05-12T03:33:20.212Z,13.03
2023-05-12T03:34:20.052Z,13.03
2023-05-12T03:35:20.028Z,13.02
2023-05-12T03:36:20.026Z,13.00
2023-05-12T03:37:20.008Z,13.00
2023-05-12T03:38:20.021Z,13.00
2023-05-12T03:39:19.993Z,12.99
2023-05-12T03:40:20.145Z,13.00
2023-05-12T03:41:19.956Z,12.97
2023-05-12T03:42:19.972Z,12.96
2023-05-12T03:43:19.939Z,12.95
2023-05-12T03:44:19.972Z,12.93
2023-05-12T03:45:19.912Z,12.93
2023-05-12T03:46:20.028Z,12.95
2023-05-12T03:47:20.035Z,12.95
2023-05-12T03:48:20.692Z,12.95
2023-05-12T03:49:19.935Z,12.96
2023-05-12T03:50:20.030Z,12.95
2023-05-12T03:51:19.854Z,12.92
2023-05-12T03:52:19.849Z,12.92
2023-05-12T03:53:19.862Z,12.92
2023-05-12T03:54:19.831Z,12.93
2023-05-12T03:55:19.807Z,12.89
2023-05-12T03:56:19.803Z,12.87
2023-05-12T03:57:19.786Z,12.88
2023-05-12T03:58:19.771Z,12.88
2023-05-12T03:59:19.806Z,12.89
2023-05-12T04:00:19.989Z,12.89
2023-05-12T04:01:19.749Z,12.87
2023-05-12T04:02:19.826Z,12.87
2023-05-12T04:03:19.819Z,12.87
2023-05-12T04:04:19.718Z,12.84
2023-05-12T04:05:19.725Z,12.81
2023-05-12T04:06:19.696Z,12.84
2023-05-12T04:07:19.687Z,12.87
2023-05-12T04:08:19.674Z,12.87
2023-05-12T04:09:19.697Z,12.88
2023-05-12T04:10:19.847Z,12.92
2023-05-12T04:11:19.649Z,12.92
2023-05-12T04:12:19.647Z,12.92
2023-05-12T04:13:19.623Z,12.92
2023-05-12T04:14:20.460Z,12.93
2023-05-12T04:15:19.634Z,12.95
2023-05-12T04:16:19.621Z,12.95
2023-05-12T04:17:19.596Z,12.93
2023-05-12T04:18:19.614Z,12.95
2023-05-12T04:19:19.968Z,12.95
2023-05-12T04:20:19.814Z,12.97
2023-05-12T04:21:19.541Z,13.00
2023-05-12T04:22:19.523Z,13.02
2023-05-12T04:23:19.506Z,13.03
2023-05-12T04:24:19.485Z,13.03
2023-05-12T04:25:19.505Z,13.06
2023-05-12T04:26:19.469Z,13.09
2023-05-12T04:27:19.467Z,13.09
2023-05-12T04:28:19.452Z,13.12
2023-05-12T04:29:19.438Z,13.12
2023-05-12T04:30:19.702Z,13.15
2023-05-12T04:31:19.526Z,13.15
2023-05-12T04:32:19.421Z,13.14
2023-05-12T04:33:19.414Z,13.15
2023-05-12T04:34:19.396Z,13.18
2023-05-12T04:35:19.691Z,13.21
2023-05-12T04:36:19.383Z,13.20
2023-05-12T04:37:19.346Z,13.21
2023-05-12T04:38:19.348Z,13.22
2023-05-12T04:39:19.340Z,13.24
2023-05-12T04:40:19.576Z,13.27
2023-05-12T04:41:19.337Z,13.29
2023-05-12T04:42:19.309Z,13.29
2023-05-12T04:44:19.279Z,13.30
2023-05-12T04:45:19.558Z,13.32
2023-05-12T04:46:19.292Z,13.37
2023-05-12T04:47:19.247Z,13.41
2023-05-12T04:48:19.258Z,13.46
2023-05-12T04:49:19.226Z,13.47
2023-05-12T04:50:19.206Z,13.51
2023-05-12T04:51:19.209Z,13.49
2023-05-12T04:52:19.224Z,13.51
2023-05-12T04:53:19.201Z,13.54
2023-05-12T04:54:19.165Z,13.56
2023-05-12T04:55:19.323Z,13.59
2023-05-12T04:56:19.144Z,13.62
2023-05-12T04:57:19.171Z,13.63
2023-05-12T04:58:19.151Z,13.65
2023-05-12T04:59:19.113Z,13.70
2023-05-12T05:00:19.112Z,13.71
2023-05-12T05:01:19.154Z,13.73
2023-05-12T05:02:19.094Z,13.76
2023-05-12T05:03:19.173Z,13.76
2023-05-12T05:04:19.054Z,13.81
2023-05-12T05:05:19.491Z,13.87
2023-05-12T05:06:19.035Z,13.88
2023-05-12T05:07:19.032Z,13.92
2023-05-12T05:08:19.040Z,13.96
2023-05-12T05:09:19.010Z,13.99
2023-05-12T05:10:18.999Z,13.99
2023-05-12T05:11:18.981Z,14.02
2023-05-12T05:12:18.970Z,14.07
2023-05-12T05:13:18.966Z,14.10
2023-05-12T05:14:18.974Z,14.14
2023-05-12T05:15:19.201Z,14.17
2023-05-12T05:16:19.029Z,14.21
2023-05-12T05:17:18.923Z,14.25
2023-05-12T05:18:19.805Z,14.27
2023-05-12T05:19:22.816Z,14.31
2023-05-12T05:20:19.822Z,14.34
2023-05-12T05:21:18.897Z,14.34
2023-05-12T05:22:18.861Z,14.37
2023-05-12T05:23:18.880Z,14.39
2023-05-12T05:24:18.844Z,14.43
2023-05-12T05:25:19.062Z,14.46
2023-05-12T05:26:18.826Z,14.46
2023-05-12T05:27:18.826Z,14.52
2023-05-12T05:28:18.801Z,14.57
2023-05-12T05:29:18.800Z,14.57
2023-05-12T05:30:18.795Z,14.62
2023-05-12T05:31:18.792Z,14.67
2023-05-12T05:32:18.750Z,14.68
2023-05-12T05:33:18.754Z,14.72
2023-05-12T05:34:18.887Z,14.80
2023-05-12T05:35:18.967Z,14.80
2023-05-12T05:36:18.710Z,14.84
2023-05-12T05:37:18.703Z,14.87
2023-05-12T05:38:18.703Z,14.93
2023-05-12T05:39:18.687Z,14.95
2023-05-12T05:40:18.696Z,14.99
2023-05-12T05:41:18.654Z,15.02
2023-05-12T05:42:18.644Z,15.02
2023-05-12T05:43:18.732Z,15.06
2023-05-12T05:44:18.623Z,15.08
2023-05-12T05:45:18.803Z,15.11
2023-05-12T05:46:18.646Z,15.17
2023-05-12T05:47:18.588Z,15.15
2023-05-12T05:48:18.582Z,15.15
2023-05-12T05:49:18.563Z,15.19
2023-05-12T05:50:18.551Z,15.20
2023-05-12T05:51:18.550Z,15.21
2023-05-12T05:52:18.553Z,15.21
2023-05-12T05:53:18.590Z,15.26
2023-05-12T05:54:18.511Z,15.26
2023-05-12T05:55:18.827Z,15.30
2023-05-12T05:56:18.500Z,15.33
2023-05-12T05:57:18.504Z,15.36
2023-05-12T05:58:18.460Z,15.39
2023-05-12T05:59:18.461Z,15.42
2023-05-12T06:00:18.455Z,15.45
2023-05-12T06:01:18.429Z,15.48
2023-05-12T06:02:18.455Z,15.49
2023-05-12T06:03:18.494Z,15.52
2023-05-12T06:04:18.545Z,15.57
2023-05-12T06:05:18.482Z,15.60
2023-05-12T06:06:18.375Z,15.61
2023-05-12T06:07:19.261Z,15.63
2023-05-12T06:08:18.360Z,15.61
2023-05-12T06:09:18.350Z,15.63
2023-05-12T06:10:18.629Z,15.63
2023-05-12T06:11:18.318Z,15.66
2023-05-12T06:12:18.333Z,15.68
2023-05-12T06:13:18.311Z,15.72
2023-05-12T06:14:18.295Z,15.74
2023-05-12T06:15:18.557Z,15.75
2023-05-12T06:16:18.353Z,15.78
2023-05-12T06:17:18.354Z,15.79
2023-05-12T06:18:18.241Z,15.81
2023-05-12T06:19:18.241Z,15.82
2023-05-12T06:20:18.215Z,15.85
2023-05-12T06:21:18.229Z,15.85
2023-05-12T06:22:18.193Z,15.82
2023-05-12T06:23:18.241Z,15.86
2023-05-12T06:24:18.178Z,15.92
2023-05-12T06:25:18.375Z,15.96
2023-05-12T06:26:18.163Z,16.00
2023-05-12T06:27:18.152Z,15.99
2023-05-12T06:28:18.153Z,16.04
2023-05-12T06:29:18.146Z,16.07
2023-05-12T06:30:18.110Z,16.11
2023-05-12T06:31:18.127Z,16.16
2023-05-12T06:32:18.201Z,16.18
2023-05-12T06:33:18.092Z,16.25
2023-05-12T06:34:18.091Z,16.31
2023-05-12T06:35:18.229Z,16.33
2023-05-12T06:36:18.047Z,16.35
2023-05-12T06:37:18.073Z,16.41
2023-05-12T06:38:18.025Z,16.45
2023-05-12T06:39:18.023Z,16.49
2023-05-12T06:40:18.019Z,16.53
2023-05-12T06:41:17.992Z,16.58
2023-05-12T06:42:17.992Z,16.62
2023-05-12T06:43:17.995Z,16.67
2023-05-12T06:44:17.986Z,16.71
2023-05-12T06:45:18.138Z,16.75
2023-05-12T06:46:17.965Z,16.78
2023-05-12T06:47:17.947Z,16.81
2023-05-12T06:48:17.913Z,16.89
2023-05-12T06:49:17.904Z,16.93
2023-05-12T06:50:17.933Z,16.98
2023-05-12T06:51:17.893Z,16.98
2023-05-12T06:52:17.886Z,17.03
2023-05-12T06:53:17.879Z,17.00
2023-05-12T06:54:18.697Z,17.00
2023-05-12T06:55:18.092Z,17.00
2023-05-12T06:56:17.831Z,17.06
2023-05-12T06:57:17.832Z,17.13
2023-05-12T06:58:17.919Z,17.14
2023-05-12T06:59:18.881Z,17.17
2023-05-12T07:00:17.799Z,17.25
2023-05-12T07:01:17.801Z,17.29
2023-05-12T07:02:17.763Z,17.30
2023-05-12T07:03:17.874Z,17.35
2023-05-12T07:04:17.741Z,17.43
2023-05-12T07:05:17.836Z,17.46
2023-05-12T07:06:17.767Z,17.53
2023-05-12T07:07:17.716Z,17.63
2023-05-12T07:08:17.692Z,17.67
2023-05-12T07:09:17.707Z,17.71
2023-05-12T07:10:17.706Z,17.76
2023-05-12T07:11:17.663Z,17.74
2023-05-12T07:12:17.672Z,17.84
2023-05-12T07:13:17.647Z,17.85
2023-05-12T07:14:17.666Z,17.85
2023-05-12T07:15:17.723Z,17.88
2023-05-12T07:16:17.643Z,17.91
2023-05-12T07:17:17.611Z,17.95
2023-05-12T07:18:17.586Z,17.97
2023-05-12T07:19:17.612Z,17.89
2023-05-12T07:20:17.570Z,17.92
2023-05-12T07:21:17.577Z,17.97
2023-05-12T07:22:17.550Z,18.00
2023-05-12T07:23:17.549Z,17.94
2023-05-12T07:24:17.574Z,18.02
2023-05-12T07:25:17.671Z,18.06
2023-05-12T07:26:18.066Z,18.13
2023-05-12T07:27:17.538Z,18.15
2023-05-12T07:28:17.479Z,18.19
2023-05-12T07:29:17.469Z,18.21
2023-05-12T07:30:17.472Z,18.19
2023-05-12T07:31:17.462Z,18.19
2023-05-12T07:32:17.440Z,18.27
2023-05-12T07:33:17.456Z,18.31
2023-05-12T07:34:17.413Z,18.27
2023-05-12T07:35:17.518Z,18.33
2023-05-12T07:36:17.407Z,18.33
2023-05-12T07:37:17.387Z,18.39
2023-05-12T07:38:17.388Z,18.43
2023-05-12T07:39:17.368Z,18.44
2023-05-12T07:40:17.351Z,18.46
2023-05-12T07:41:17.352Z,18.50
2023-05-12T07:42:17.348Z,18.52
2023-05-12T07:43:17.325Z,18.57
2023-05-12T07:44:17.308Z,18.64
2023-05-12T07:45:17.494Z,18.64
2023-05-12T07:46:17.287Z,18.68
2023-05-12T07:47:17.419Z,18.72
2023-05-12T07:48:17.289Z,18.77
2023-05-12T07:49:17.258Z,18.83
2023-05-12T07:50:17.237Z,18.86
2023-05-12T07:51:17.238Z,18.90
2023-05-12T07:52:21.723Z,18.90
2023-05-12T07:53:17.212Z,18.92
2023-05-12T07:54:17.224Z,18.92
2023-05-12T07:55:17.823Z,18.90
2023-05-12T07:56:17.187Z,18.91
2023-05-12T07:57:17.160Z,18.86
2023-05-12T07:58:17.306Z,18.82
2023-05-12T07:59:17.184Z,18.83
2023-05-12T08:00:17.126Z,18.83
2023-05-12T08:01:17.125Z,18.86
2023-05-12T08:02:17.173Z,18.91
2023-05-12T08:03:17.222Z,18.92
2023-05-12T08:04:17.157Z,18.95
2023-05-12T08:05:17.157Z,18.92
2023-05-12T08:06:17.072Z,18.94
2023-05-12T08:07:17.060Z,19.01
2023-05-12T08:08:17.046Z,19.11
2023-05-12T08:09:17.038Z,19.10
2023-05-12T08:10:17.050Z,19.14
2023-05-12T08:11:17.032Z,19.05
2023-05-12T08:12:17.001Z,18.99
2023-05-12T08:13:17.001Z,18.91
2023-05-12T08:14:16.990Z,18.92
2023-05-12T08:15:16.989Z,18.97
2023-05-12T08:16:16.968Z,19.01
2023-05-12T08:17:16.973Z,19.06
2023-05-12T08:18:16.982Z,19.13
2023-05-12T08:19:17.691Z,19.23
2023-05-12T08:20:16.946Z,19.25
2023-05-12T08:21:16.928Z,19.28
2023-05-12T08:22:16.909Z,19.25
2023-05-12T08:23:16.887Z,19.21
2023-05-12T08:24:16.918Z,19.18
2023-05-12T08:25:16.872Z,19.21
2023-05-12T08:26:16.867Z,19.24
2023-05-12T08:27:16.840Z,19.28
2023-05-12T08:28:16.839Z,19.29
2023-05-12T08:29:16.815Z,19.35
2023-05-12T08:30:16.797Z,19.39
2023-05-12T08:31:16.848Z,19.43
2023-05-12T08:32:16.807Z,19.48
2023-05-12T08:33:16.788Z,19.46
2023-05-12T08:34:16.784Z,19.50
2023-05-12T08:35:16.752Z,19.57
2023-05-12T08:36:16.738Z,19.61
2023-05-12T08:37:16.755Z,19.66
2023-05-12T08:38:16.718Z,19.75
2023-05-12T08:39:16.702Z,19.80
2023-05-12T08:40:16.703Z,19.86
2023-05-12T08:41:16.688Z,19.90
2023-05-12T08:42:16.705Z,19.94
2023-05-12T08:43:16.667Z,19.93
2023-05-12T08:44:16.656Z,19.98
2023-05-12T08:45:16.673Z,19.98
2023-05-12T08:46:16.678Z,20.06
2023-05-12T08:47:16.621Z,20.10
2023-05-12T08:48:16.679Z,20.16
2023-05-12T08:49:16.607Z,20.23
2023-05-12T08:50:16.581Z,20.21
2023-05-12T08:51:16.571Z,20.25
2023-05-12T08:52:16.565Z,20.24
2023-05-12T08:53:16.556Z,20.25
2023-05-12T08:54:16.568Z,20.28
2023-05-12T08:55:16.555Z,20.30
2023-05-12T08:57:16.505Z,20.38
2023-05-12T08:58:16.517Z,20.41
2023-05-12T08:59:16.480Z,20.47
2023-05-12T09:00:16.491Z,20.56
2023-05-12T09:01:16.684Z,20.59
2023-05-12T09:02:16.523Z,20.66
2023-05-12T09:03:16.530Z,20.72
2023-05-12T09:04:16.458Z,20.76
2023-05-12T09:05:16.428Z,20.77
2023-05-12T09:06:16.427Z,20.80
2023-05-12T09:07:16.421Z,20.86
2023-05-12T09:08:16.390Z,20.95
2023-05-12T09:09:16.374Z,21.04
2023-05-12T09:10:29.877Z,21.06
2023-05-12T09:11:16.369Z,21.08
2023-05-12T09:12:16.921Z,21.14
2023-05-12T09:13:16.339Z,21.24
2023-05-12T09:14:16.321Z,21.38
2023-05-12T09:15:16.334Z,21.42
2023-05-12T09:16:16.352Z,21.46
2023-05-12T09:17:16.284Z,21.51
2023-05-12T09:18:16.308Z,21.45
2023-05-12T09:19:16.285Z,21.45
2023-05-12T09:20:27.775Z,21.53
2023-05-12T09:21:16.249Z,21.60
2023-05-12T09:22:16.278Z,21.67
2023-05-12T09:23:16.261Z,21.75
2023-05-12T09:24:16.223Z,21.83
2023-05-12T09:25:16.348Z,21.95
2023-05-12T09:26:16.194Z,22.01
2023-05-12T09:27:16.208Z,22.06
2023-05-12T09:28:16.205Z,22.10
2023-05-12T09:29:27.835Z,22.22
2023-05-12T09:30:16.167Z,22.19
2023-05-12T09:31:16.250Z,22.19
2023-05-12T09:32:16.198Z,22.23
2023-05-12T09:33:16.272Z,22.31
2023-05-12T09:34:16.130Z,22.38
2023-05-12T09:35:16.091Z,22.44
2023-05-12T09:36:16.100Z,22.49
2023-05-12T09:37:16.091Z,22.53
2023-05-12T09:38:16.114Z,22.53
2023-05-12T09:39:16.125Z,22.57
2023-05-12T09:40:16.041Z,22.59
2023-05-12T09:41:16.066Z,22.68
2023-05-12T09:42:16.027Z,22.77
2023-05-12T09:43:16.010Z,22.87
2023-05-12T09:44:16.009Z,22.97
2023-05-12T09:45:16.010Z,23.07
2023-05-12T09:46:16.007Z,23.17
2023-05-12T09:47:15.965Z,23.29
2023-05-12T09:48:15.972Z,23.42
2023-05-12T09:49:15.974Z,23.46
2023-05-12T09:50:15.950Z,23.53
2023-05-12T09:51:15.920Z,23.64
2023-05-12T09:52:15.916Z,23.77
2023-05-12T09:53:15.908Z,23.89
2023-05-12T09:54:16.795Z,24.04
2023-05-12T09:55:15.898Z,24.16
2023-05-12T09:56:15.872Z,24.27
2023-05-12T09:57:15.864Z,24.32
2023-05-12T09:58:15.845Z,24.02
2023-05-12T09:59:15.833Z,24.02
2023-05-12T10:00:31.237Z,24.01
2023-05-12T10:01:22.636Z,24.12
2023-05-12T10:02:15.910Z,24.19
2023-05-12T10:03:15.862Z,24.34
2023-05-12T10:04:15.868Z,24.50
2023-05-12T10:05:15.788Z,24.61
2023-05-12T10:06:15.791Z,24.79
2023-05-12T10:07:15.774Z,24.92
2023-05-12T10:08:15.761Z,25.05
2023-05-12T10:09:15.769Z,25.19
2023-05-12T10:10:15.741Z,25.25
2023-05-12T10:11:15.723Z,25.46
2023-05-12T10:12:15.736Z,25.71
2023-05-12T10:13:15.686Z,25.71
2023-05-12T10:14:15.701Z,25.82
2023-05-12T10:15:15.677Z,25.91
2023-05-12T10:16:15.705Z,26.12
2023-05-12T10:17:15.680Z,26.44
2023-05-12T10:18:15.738Z,26.73
2023-05-12T10:19:15.622Z,26.81
2023-05-12T10:20:15.681Z,27.06
2023-05-12T10:21:15.624Z,27.17
2023-05-12T10:22:15.622Z,26.95
2023-05-12T10:23:15.612Z,26.84
2023-05-12T10:24:15.572Z,26.79
2023-05-12T10:25:15.557Z,26.73
2023-05-12T10:26:15.560Z,26.69
2023-05-12T10:27:15.571Z,26.72
2023-05-12T10:28:15.574Z,26.77
2023-05-12T10:29:15.528Z,26.87
2023-05-12T10:30:15.540Z,26.77
2023-05-12T10:31:15.544Z,26.86
2023-05-12T10:32:15.502Z,26.89
2023-05-12T10:33:15.472Z,27.39
2023-05-12T10:34:15.481Z,28.25
2023-05-12T10:35:15.465Z,29.20
2023-05-12T10:36:15.438Z,29.99
2023-05-12T10:37:15.426Z,30.56
2023-05-12T10:38:15.474Z,30.90
2023-05-12T10:39:15.426Z,31.17
2023-05-12T10:40:15.486Z,31.43
2023-05-12T10:41:15.396Z,31.76
2023-05-12T10:42:15.393Z,31.98
2023-05-12T10:43:15.378Z,32.06
2023-05-12T10:44:15.394Z,32.15
2023-05-12T10:45:15.357Z,32.17
2023-05-12T10:46:15.444Z,31.99
2023-05-12T10:47:15.353Z,31.88
2023-05-12T10:48:15.351Z,31.95
2023-05-12T10:49:15.332Z,32.00
2023-05-12T10:50:15.339Z,31.61
2023-05-12T10:51:15.311Z,31.38
2023-05-12T10:52:15.279Z,31.06
2023-05-12T10:53:15.270Z,30.93
2023-05-12T10:54:15.255Z,31.04
2023-05-12T10:55:15.370Z,30.69
2023-05-12T10:56:15.418Z,30.45
2023-05-12T10:57:18.400Z,30.30
2023-05-12T10:58:15.454Z,30.57
2023-05-12T10:59:16.504Z,30.83
2023-05-12T11:00:15.685Z,31.08
2023-05-12T11:01:15.685Z,31.15
2023-05-12T11:02:15.837Z,31.23
2023-05-12T11:03:16.817Z,31.54
2023-05-12T11:04:15.618Z,31.48
2023-05-12T11:05:15.330Z,30.96
2023-05-12T11:06:15.751Z,30.83
2023-05-12T11:07:16.536Z,30.99
2023-05-12T11:08:15.755Z,31.04
2023-05-12T11:09:15.637Z,30.91
2023-05-12T11:10:15.419Z,30.54
2023-05-12T11:11:15.926Z,30.65
2023-05-12T11:12:15.080Z,30.69
2023-05-12T11:13:15.089Z,30.69
2023-05-12T11:14:15.054Z,30.98
2023-05-12T11:15:17.290Z,31.38
2023-05-12T11:16:15.084Z,31.57
2023-05-12T11:17:15.014Z,31.43
2023-05-12T11:18:15.102Z,31.65
2023-05-12T11:19:15.091Z,31.49
2023-05-12T11:20:15.032Z,31.39
2023-05-12T11:21:14.984Z,31.57
2023-05-12T11:22:14.976Z,31.48
2023-05-12T11:23:14.971Z,30.91
2023-05-12T11:24:17.756Z,30.18
2023-05-12T11:25:14.984Z,30.09
2023-05-12T11:26:14.957Z,30.34
2023-05-12T11:27:14.939Z,30.45
2023-05-12T11:28:15.754Z,30.40
2023-05-12T11:29:15.076Z,30.68
2023-05-12T11:30:14.895Z,30.81
2023-05-12T11:31:14.909Z,30.89
2023-05-12T11:32:14.889Z,30.90
2023-05-12T11:33:14.928Z,31.38
2023-05-12T11:34:14.940Z,31.67
2023-05-12T11:35:14.862Z,31.92
2023-05-12T11:36:15.644Z,32.15
2023-05-12T11:37:14.851Z,32.47
2023-05-12T11:38:14.825Z,32.48
2023-05-12T11:39:14.841Z,32.39
2023-05-12T11:40:14.810Z,32.59
2023-05-12T11:41:14.780Z,32.64
2023-05-12T11:42:16.964Z,32.70
2023-05-12T11:43:14.792Z,32.02
2023-05-12T11:44:14.767Z,31.92
2023-05-12T11:45:14.770Z,31.85
2023-05-12T11:46:14.805Z,32.18
2023-05-12T11:47:14.764Z,32.27
2023-05-12T11:48:14.961Z,32.61
2023-05-12T11:49:14.705Z,32.64
2023-05-12T11:50:14.735Z,32.79
2023-05-12T11:51:14.691Z,32.89
2023-05-12T11:52:14.700Z,32.81
2023-05-12T11:53:14.918Z,32.98
2023-05-12T11:54:14.692Z,33.17
2023-05-12T11:55:14.650Z,33.42
2023-05-12T11:56:14.648Z,33.67
2023-05-12T11:57:14.657Z,33.89
2023-05-12T11:58:14.617Z,34.05
2023-05-12T11:59:14.634Z,34.23
2023-05-12T12:00:14.610Z,33.22
2023-05-12T12:01:14.613Z,32.06
2023-05-12T12:02:14.630Z,32.00
2023-05-12T12:03:15.064Z,32.43
2023-05-12T12:04:14.603Z,32.85
2023-05-12T12:05:14.569Z,32.99
2023-05-12T12:06:14.547Z,33.17
2023-05-12T12:07:14.556Z,33.17
2023-05-12T12:08:14.523Z,33.42
2023-05-12T12:09:14.538Z,33.61
2023-05-12T12:10:14.522Z,33.71
2023-05-12T12:11:14.509Z,33.80
2023-05-12T12:12:14.499Z,33.97
2023-05-12T12:13:14.469Z,33.71
2023-05-12T12:14:14.478Z,33.65
2023-05-12T12:15:14.484Z,33.85
2023-05-12T12:16:15.054Z,33.79
2023-05-12T12:17:14.452Z,32.89
2023-05-12T12:18:14.451Z,32.44
2023-05-12T12:19:14.472Z,32.47
2023-05-12T12:20:14.413Z,32.74
2023-05-12T12:21:14.394Z,32.91
2023-05-12T12:22:14.512Z,33.22
2023-05-12T12:23:14.384Z,33.43
2023-05-12T12:24:14.371Z,33.46
2023-05-12T12:25:14.357Z,32.61
2023-05-12T12:26:14.347Z,32.89
2023-05-12T12:27:14.361Z,33.31
2023-05-12T12:28:14.335Z,32.14
2023-05-12T12:29:14.318Z,31.76
2023-05-12T12:30:14.304Z,31.43
2023-05-12T12:31:14.329Z,32.11
2023-05-12T12:32:14.321Z,32.73
2023-05-12T12:33:14.349Z,33.14
2023-05-12T12:34:14.301Z,33.48
2023-05-12T12:35:14.255Z,33.70
2023-05-12T12:36:14.269Z,33.90
2023-05-12T12:37:14.264Z,34.24
2023-05-12T12:38:14.314Z,34.44
2023-05-12T12:39:14.247Z,34.64
2023-05-12T12:40:14.221Z,34.77
2023-05-12T12:41:14.204Z,34.70
2023-05-12T12:42:14.183Z,34.31
2023-05-12T12:43:14.219Z,33.94
2023-05-12T12:44:14.176Z,33.71
2023-05-12T12:45:14.179Z,33.94
2023-05-12T12:46:14.146Z,34.41
2023-05-12T12:47:14.224Z,33.73
2023-05-12T12:48:14.207Z,32.96
2023-05-12T12:49:14.143Z,33.46
2023-05-12T12:50:14.137Z,34.01
2023-05-12T12:51:14.096Z,32.86
2023-05-12T12:52:14.092Z,32.98
2023-05-12T12:53:14.128Z,32.10
2023-05-12T12:54:14.096Z,32.06